Impacts TAF Board
For situational awareness. Not to be used for flight planning purposes.
IDs:

KBTR - Baton Rouge/Ryan Fld, LA, US

Issued at 1720 UTC 02 Oct 2022
Updated at 2316 UTC 02 Oct 2022
Potential Impact None Slight Moderate High
Time2253Z 03/00Z 03/01Z 03/02Z 03/03Z 03/04Z 03/05Z 03/06Z 03/07Z 03/08Z 03/09Z 03/10Z 03/11Z 03/12Z>>
Type OBS PRVL PRVL PRVL PRVL PRVL PRVL PRVL PRVL PRVL PRVL PRVL PRVL PRVL
VIS 10 >6 >6 >6 >6 >6 >6 >6 >6 >6 >6 >6 >6 >6
CIG -- -- -- -- -- -- -- -- -- -- -- -- -- --
Cover CLR SKC SKC SKC SKC SKC SKC SKC SKC SKC SKC SKC SKC SKC
FltCat VFR VFR VFR VFR VFR VFR VFR VFR VFR VFR VFR VFR VFR VFR
WX -- -- -- -- -- -- -- -- -- -- -- -- -- --
WDir 340 VRB VRB VRB VRB VRB VRB VRB VRB VRB VRB VRB VRB VRB
WSpd 3 3 3 3 3 3 3 3 3 3 3 3 3 3
WGst -- -- -- -- -- -- -- -- -- -- -- -- -- --
WSHgt -- -- -- -- -- -- -- -- -- -- -- -- -- --
WSDir -- -- -- -- -- -- -- -- -- -- -- -- -- --
WSSpd -- -- -- -- -- -- -- -- -- -- -- -- -- --
R04/22
XWnd 3 VRB VRB VRB VRB VRB VRB VRB VRB VRB VRB VRB VRB VRB
HWnd 1 VRB VRB VRB VRB VRB VRB VRB VRB VRB VRB VRB VRB VRB
R13/31
XWnd 1 VRB VRB VRB VRB VRB VRB VRB VRB VRB VRB VRB VRB VRB
HWnd -3 VRB VRB VRB VRB VRB VRB VRB VRB VRB VRB VRB VRB VRB
Raw TAF
KBTR 021720Z 0218/0318 01007KT P6SM FEW250
  FM030000 VRB03KT P6SM SKC


Raw METAR
KBTR 022253Z 34003KT 10SM CLR 27/11 A3003 RMK AO2 SLP169 T02720106
KBTR 022153Z 33005KT 10SM CLR 28/10 A3003 RMK AO2 SLP168 T02830100
KBTR 022053Z AUTO 36009KT 10SM CLR 29/09 A3003 RMK AO2 SLP169 T02940094 56019

METAR Board
Radar Display
Forecast Discussion
For situational awareness. Not to be used for flight planning purposes.